Overview Statistics Trail Chart Weather Telemetry Raw packets
 

This is the latest recevied weather packets stored in our database for station/object IZ1MEU-13. If no packets are shown the sender has not sent any weather packets the latest 10 day(s).

<< 1 2 3 4 5 6 7 >>
Time Temp. Humidity Pressure Rain* Wind** Luminosity Snow
1788476870 22.78° C 43% 1022.9 hPa - - - -
1788475666 22.78° C 44% 1022.9 hPa - - - -
1788474462 22.78° C 44% 1022.9 hPa - - - -
1788473258 23.33° C 44% 1022.8 hPa - - - -
1788472054 23.33° C 44% 1022.8 hPa - - - -
1788470850 23.89° C 44% 1022.7 hPa - - - -
1788469645 23.89° C 44% 1022.7 hPa - - - -
1788468441 23.89° C 44% 1022.7 hPa - - - -
1788467237 23.89° C 44% 1022.7 hPa - - - -
1788466033 23.89° C 44% 1022.7 hPa - - - -
1788464829 23.89° C 44% 1022.6 hPa - - - -
1788464390 23.89° C 44% 1022.5 hPa - - - -
1788463187 23.89° C 43% 1022.5 hPa - - - -
1788461983 24.44° C 42% 1022.2 hPa - - - -
1788460780 25° C 39% 1022.1 hPa - - - -
1788459576 25.56° C 38% 1022 hPa - - - -
1788458373 26.67° C 36% 1022 hPa - - - -
1788457169 27.78° C 34% 1021.7 hPa - - - -
1788454762 29.44° C 31% 1021.5 hPa - - - -
1788453559 30° C 31% 1021.4 hPa - - - -
1788452355 30° C 30% 1021.4 hPa - - - -
1788451152 30° C 31% 1021.5 hPa - - - -
1788449948 30° C 31% 1021.6 hPa - - - -
1788448745 30° C 32% 1021.7 hPa - - - -
1788447541 29.44° C 33% 1021.8 hPa - - - -

* Rain since midnight (hover to see other rain measurements)
** Current wind speed in m/s (hover to see current wind gust speed)